sensor_id;sensor_type;location;lat;lon;timestamp;pressure;altitude;pressure_sealevel;temperature;humidity
44359;BME280;30077;52.474;13.326;2022-11-11T00:01:31;102180.25;;;8.91;100.00
44359;BME280;30077;52.474;13.326;2022-11-11T00:06:31;102166.09;;;8.87;100.00
44359;BME280;30077;52.474;13.326;2022-11-11T00:11:31;102168.75;;;8.86;100.00
44359;BME280;30077;52.474;13.326;2022-11-11T00:16:31;102170.63;;;8.81;100.00
44359;BME280;30077;52.474;13.326;2022-11-11T00:21:52;102184.88;;;8.77;100.00
44359;BME280;30077;52.474;13.326;2022-11-11T00:27:11;102186.72;;;8.72;100.00
44359;BME280;30077;52.474;13.326;2022-11-11T00:32:12;102208.94;;;8.69;100.00
44359;BME280;30077;52.474;13.326;2022-11-11T00:37:31;102193.91;;;8.63;100.00
44359;BME280;30077;52.474;13.326;2022-11-11T00:42:32;102201.03;;;8.61;100.00
44359;BME280;30077;52.474;13.326;2022-11-11T00:47:32;102205.53;;;8.58;100.00
44359;BME280;30077;52.474;13.326;2022-11-11T00:52:51;102196.69;;;8.54;100.00
44359;BME280;30077;52.474;13.326;2022-11-11T00:57:51;102183.44;;;8.51;100.00
44359;BME280;30077;52.474;13.326;2022-11-11T01:02:51;102190.53;;;8.49;100.00
44359;BME280;30077;52.474;13.326;2022-11-11T01:07:51;102185.28;;;8.46;100.00
44359;BME280;30077;52.474;13.326;2022-11-11T01:12:55;102163.09;;;8.46;100.00
44359;BME280;30077;52.474;13.326;2022-11-11T01:18:12;102167.53;;;8.45;100.00
44359;BME280;30077;52.474;13.326;2022-11-11T01:23:13;102158.69;;;8.46;100.00
44359;BME280;30077;52.474;13.326;2022-11-11T01:28:13;102154.19;;;8.50;100.00
44359;BME280;30077;52.474;13.326;2022-11-11T01:33:14;102143.56;;;8.48;100.00
44359;BME280;30077;52.474;13.326;2022-11-11T01:38:14;102155.16;;;8.44;100.00
44359;BME280;30077;52.474;13.326;2022-11-11T01:43:18;102153.38;;;8.43;100.00
44359;BME280;30077;52.474;13.326;2022-11-11T01:48:26;102167.50;;;8.48;100.00
44359;BME280;30077;52.474;13.326;2022-11-11T01:53:55;102167.41;;;8.57;100.00
44359;BME280;30077;52.474;13.326;2022-11-11T01:59:05;102162.16;;;8.51;100.00
44359;BME280;30077;52.474;13.326;2022-11-11T02:04:09;102169.25;;;8.49;100.00
44359;BME280;30077;52.474;13.326;2022-11-11T02:09:41;102183.53;;;8.42;100.00
44359;BME280;30077;52.474;13.326;2022-11-11T02:14:49;102190.63;;;8.43;100.00
44359;BME280;30077;52.474;13.326;2022-11-11T02:19:54;102189.78;;;8.36;100.00
44359;BME280;30077;52.474;13.326;2022-11-11T02:24:56;102189.81;;;8.33;100.00
44359;BME280;30077;52.474;13.326;2022-11-11T02:29:59;102209.28;;;8.34;100.00
44359;BME280;30077;52.474;13.326;2022-11-11T02:35:00;102209.28;;;8.38;100.00
44359;BME280;30077;52.474;13.326;2022-11-11T02:40:01;102214.59;;;8.38;100.00
44359;BME280;30077;52.474;13.326;2022-11-11T02:45:03;102203.97;;;8.35;100.00
44359;BME280;30077;52.474;13.326;2022-11-11T02:50:03;102198.66;;;8.34;100.00
44359;BME280;30077;52.474;13.326;2022-11-11T02:55:05;102194.25;;;8.33;100.00
44359;BME280;30077;52.474;13.326;2022-11-11T03:00:06;102196.91;;;8.33;100.00
44359;BME280;30077;52.474;13.326;2022-11-11T03:05:06;102202.22;;;8.33;100.00
44359;BME280;30077;52.474;13.326;2022-11-11T03:10:07;102210.19;;;8.36;100.00
44359;BME280;30077;52.474;13.326;2022-11-11T03:15:08;102196.84;;;8.40;100.00
44359;BME280;30077;52.474;13.326;2022-11-11T03:20:10;102211.03;;;8.41;100.00
44359;BME280;30077;52.474;13.326;2022-11-11T03:25:31;102205.72;;;8.42;100.00
44359;BME280;30077;52.474;13.326;2022-11-11T03:30:39;102197.72;;;8.41;100.00
44359;BME280;30077;52.474;13.326;2022-11-11T03:35:40;102186.25;;;8.37;100.00
44359;BME280;30077;52.474;13.326;2022-11-11T03:40:45;102178.28;;;8.33;100.00
44359;BME280;30077;52.474;13.326;2022-11-11T03:45:46;102175.69;;;8.28;100.00
44359;BME280;30077;52.474;13.326;2022-11-11T03:50:47;102152.69;;;8.23;100.00
44359;BME280;30077;52.474;13.326;2022-11-11T03:55:48;102153.59;;;8.22;100.00
44359;BME280;30077;52.474;13.326;2022-11-11T04:00:49;102155.38;;;8.23;100.00
44359;BME280;30077;52.474;13.326;2022-11-11T04:05:50;102152.69;;;8.23;100.00
44359;BME280;30077;52.474;13.326;2022-11-11T04:11:11;102157.19;;;8.17;100.00
44359;BME280;30077;52.474;13.326;2022-11-11T04:16:12;102166.06;;;8.16;100.00
44359;BME280;30077;52.474;13.326;2022-11-11T04:21:13;102159.88;;;8.17;100.00
44359;BME280;30077;52.474;13.326;2022-11-11T04:26:32;102151.00;;;8.15;100.00
44359;BME280;30077;52.474;13.326;2022-11-11T04:31:32;102159.00;;;8.15;100.00
44359;BME280;30077;52.474;13.326;2022-11-11T04:36:32;102151.94;;;8.11;100.00
44359;BME280;30077;52.474;13.326;2022-11-11T04:41:33;102155.53;;;8.07;100.00
44359;BME280;30077;52.474;13.326;2022-11-11T04:46:33;102159.13;;;8.03;100.00
44359;BME280;30077;52.474;13.326;2022-11-11T04:51:33;102167.97;;;8.02;100.00
44359;BME280;30077;52.474;13.326;2022-11-11T04:56:52;102170.63;;;8.02;100.00
44359;BME280;30077;52.474;13.326;2022-11-11T05:01:53;102160.91;;;8.01;100.00
44359;BME280;30077;52.474;13.326;2022-11-11T05:07:12;102166.19;;;8.04;100.00
44359;BME280;30077;52.474;13.326;2022-11-11T05:12:31;102161.75;;;8.06;100.00
44359;BME280;30077;52.474;13.326;2022-11-11T05:17:31;102157.31;;;8.05;100.00
44359;BME280;30077;52.474;13.326;2022-11-11T05:22:50;102164.41;;;8.06;100.00
44359;BME280;30077;52.474;13.326;2022-11-11T05:27:56;102161.72;;;8.08;100.00
44359;BME280;30077;52.474;13.326;2022-11-11T05:32:56;102184.78;;;8.06;100.00
44359;BME280;30077;52.474;13.326;2022-11-11T05:38:01;102192.78;;;8.04;100.00
44359;BME280;30077;52.474;13.326;2022-11-11T05:43:19;102217.59;;;8.06;100.00
44359;BME280;30077;52.474;13.326;2022-11-11T05:48:19;102229.09;;;8.07;100.00
44359;BME280;30077;52.474;13.326;2022-11-11T05:53:20;102227.28;;;8.09;100.00
44359;BME280;30077;52.474;13.326;2022-11-11T05:58:23;102219.31;;;8.10;100.00
44359;BME280;30077;52.474;13.326;2022-11-11T06:03:23;102205.09;;;8.11;100.00
44359;BME280;30077;52.474;13.326;2022-11-11T06:08:23;102213.03;;;8.16;100.00
44359;BME280;30077;52.474;13.326;2022-11-11T06:13:24;102221.91;;;8.15;100.00
44359;BME280;30077;52.474;13.326;2022-11-11T06:18:24;102224.59;;;8.13;100.00
44359;BME280;30077;52.474;13.326;2022-11-11T06:23:26;102230.78;;;8.12;100.00
44359;BME280;30077;52.474;13.326;2022-11-11T06:28:26;102239.69;;;8.10;100.00
44359;BME280;30077;52.474;13.326;2022-11-11T06:33:27;102230.78;;;8.12;100.00
44359;BME280;30077;52.474;13.326;2022-11-11T06:38:27;102239.63;;;8.16;100.00
44359;BME280;30077;52.474;13.326;2022-11-11T06:43:28;102240.47;;;8.19;100.00
44359;BME280;30077;52.474;13.326;2022-11-11T06:48:28;102235.13;;;8.23;100.00
44359;BME280;30077;52.474;13.326;2022-11-11T06:53:29;102221.78;;;8.27;100.00
44359;BME280;30077;52.474;13.326;2022-11-11T06:58:29;102229.66;;;8.35;100.00
44359;BME280;30077;52.474;13.326;2022-11-11T07:03:31;102227.88;;;8.40;100.00
44359;BME280;30077;52.474;13.326;2022-11-11T07:08:32;102227.81;;;8.46;100.00
44359;BME280;30077;52.474;13.326;2022-11-11T07:13:32;102242.78;;;8.55;100.00
44359;BME280;30077;52.474;13.326;2022-11-11T07:18:32;102251.59;;;8.61;100.00
44359;BME280;30077;52.474;13.326;2022-11-11T07:23:32;102231.09;;;8.70;100.00
44359;BME280;30077;52.474;13.326;2022-11-11T07:28:33;102240.78;;;8.75;100.00
44359;BME280;30077;52.474;13.326;2022-11-11T07:33:33;102231.81;;;8.82;100.00
44359;BME280;30077;52.474;13.326;2022-11-11T07:38:33;102253.00;;;8.90;100.00
44359;BME280;30077;52.474;13.326;2022-11-11T07:43:33;102260.91;;;8.96;100.00
44359;BME280;30077;52.474;13.326;2022-11-11T07:48:34;102275.91;;;9.03;100.00
44359;BME280;30077;52.474;13.326;2022-11-11T07:53:34;102276.69;;;9.11;100.00
44359;BME280;30077;52.474;13.326;2022-11-11T07:58:34;102279.22;;;9.21;100.00
44359;BME280;30077;52.474;13.326;2022-11-11T08:03:34;102281.81;;;9.27;100.00
44359;BME280;30077;52.474;13.326;2022-11-11T08:08:48;102290.53;;;9.38;100.00
44359;BME280;30077;52.474;13.326;2022-11-11T08:13:49;102299.09;;;9.58;100.00
44359;BME280;30077;52.474;13.326;2022-11-11T08:18:51;102297.03;;;9.79;100.00
44359;BME280;30077;52.474;13.326;2022-11-11T08:23:53;102293.13;;;9.98;100.00
44359;BME280;30077;52.474;13.326;2022-11-11T08:28:53;102308.91;;;10.13;100.00
44359;BME280;30077;52.474;13.326;2022-11-11T08:33:54;102311.28;;;10.32;100.00
44359;BME280;30077;52.474;13.326;2022-11-11T08:38:54;102303.00;;;10.47;100.00
44359;BME280;30077;52.474;13.326;2022-11-11T08:43:54;102320.59;;;10.57;99.68
44359;BME280;30077;52.474;13.326;2022-11-11T08:48:55;102313.22;;;10.72;99.65
44359;BME280;30077;52.474;13.326;2022-11-11T08:53:55;102334.97;;;10.97;97.89
44359;BME280;30077;52.474;13.326;2022-11-11T08:58:56;102351.50;;;11.16;96.15
44359;BME280;30077;52.474;13.326;2022-11-11T09:03:56;102353.16;;;11.23;95.04
44359;BME280;30077;52.474;13.326;2022-11-11T09:08:56;102361.06;;;11.27;94.55
44359;BME280;30077;52.474;13.326;2022-11-11T09:13:56;102363.44;;;11.41;94.09
44359;BME280;30077;52.474;13.326;2022-11-11T09:18:57;102370.47;;;11.45;92.62
44359;BME280;30077;52.474;13.326;2022-11-11T09:23:57;102370.06;;;11.64;92.17
44359;BME280;30077;52.474;13.326;2022-11-11T09:28:59;102379.38;;;11.88;91.42
44359;BME280;30077;52.474;13.326;2022-11-11T09:33:59;102370.13;;;12.01;90.24
44359;BME280;30077;52.474;13.326;2022-11-11T09:39:00;102372.63;;;12.09;89.48
44359;BME280;30077;52.474;13.326;2022-11-11T09:44:00;102390.44;;;12.10;88.93
44359;BME280;30077;52.474;13.326;2022-11-11T09:49:22;102402.91;;;12.11;88.47
44359;BME280;30077;52.474;13.326;2022-11-11T09:54:33;102389.53;;;12.11;87.82
44359;BME280;30077;52.474;13.326;2022-11-11T09:59:48;102390.22;;;12.19;88.29
44359;BME280;30077;52.474;13.326;2022-11-11T10:05:16;102401.59;;;12.27;87.20
44359;BME280;30077;52.474;13.326;2022-11-11T10:10:41;102409.28;;;12.42;90.71
44359;BME280;30077;52.474;13.326;2022-11-11T10:15:57;102412.38;;;12.60;87.39
44359;BME280;30077;52.474;13.326;2022-11-11T10:21:00;102399.50;;;12.74;85.94
44359;BME280;30077;52.474;13.326;2022-11-11T10:26:17;102405.38;;;12.88;85.21
44359;BME280;30077;52.474;13.326;2022-11-11T10:31:21;102400.63;;;12.99;84.33
44359;BME280;30077;52.474;13.326;2022-11-11T10:36:23;102405.00;;;13.04;83.79
44359;BME280;30077;52.474;13.326;2022-11-11T10:41:37;102406.75;;;13.03;83.19
44359;BME280;30077;52.474;13.326;2022-11-11T10:46:43;102399.53;;;13.07;82.65
44359;BME280;30077;52.474;13.326;2022-11-11T10:51:53;102397.53;;;13.15;82.20
44359;BME280;30077;52.474;13.326;2022-11-11T10:57:08;102386.75;;;13.16;81.36
44359;BME280;30077;52.474;13.326;2022-11-11T11:02:19;102397.41;;;13.18;81.67
44359;BME280;30077;52.474;13.326;2022-11-11T11:07:26;102386.44;;;13.29;81.03
44359;BME280;30077;52.474;13.326;2022-11-11T11:12:42;102379.94;;;13.37;81.01
44359;BME280;30077;52.474;13.326;2022-11-11T11:17:58;102374.25;;;13.48;79.80
44359;BME280;30077;52.474;13.326;2022-11-11T11:23:02;102378.00;;;13.42;78.94
44359;BME280;30077;52.474;13.326;2022-11-11T11:28:12;102369.00;;;13.43;79.14
44359;BME280;30077;52.474;13.326;2022-11-11T11:33:12;102369.00;;;13.43;79.28
44359;BME280;30077;52.474;13.326;2022-11-11T11:38:12;102354.78;;;13.41;78.26
44359;BME280;30077;52.474;13.326;2022-11-11T11:43:35;102356.06;;;13.28;78.60
44359;BME280;30077;52.474;13.326;2022-11-11T11:54:39;102343.09;;;13.13;79.77
44359;BME280;30077;52.474;13.326;2022-11-11T11:59:56;102348.50;;;13.11;79.09
44359;BME280;30077;52.474;13.326;2022-11-11T12:16:19;102340.16;;;13.22;79.12
44359;BME280;30077;52.474;13.326;2022-11-11T12:21:26;102331.94;;;13.28;78.08
44359;BME280;30077;52.474;13.326;2022-11-11T12:26:45;102344.44;;;13.29;78.60
44359;BME280;30077;52.474;13.326;2022-11-11T12:43:02;102342.19;;;13.43;77.67
44359;BME280;30077;52.474;13.326;2022-11-11T12:48:19;102343.13;;;13.42;77.92
44359;BME280;30077;52.474;13.326;2022-11-11T13:09:36;102338.97;;;13.32;78.08
44359;BME280;30077;52.474;13.326;2022-11-11T13:14:53;102328.25;;;13.32;78.13
44359;BME280;30077;52.474;13.326;2022-11-11T13:20:18;102329.16;;;13.33;78.15
44359;BME280;30077;52.474;13.326;2022-11-11T13:25:23;102330.03;;;13.33;78.12
44359;BME280;30077;52.474;13.326;2022-11-11T13:30:44;102330.94;;;13.32;78.16
44359;BME280;30077;52.474;13.326;2022-11-11T13:35:54;102331.19;;;13.23;78.98
44359;BME280;30077;52.474;13.326;2022-11-11T13:40:58;102325.19;;;13.15;79.21
44359;BME280;30077;52.474;13.326;2022-11-11T13:46:00;102314.63;;;13.09;79.87
44359;BME280;30077;52.474;13.326;2022-11-11T13:51:11;102323.06;;;12.95;80.81
44359;BME280;30077;52.474;13.326;2022-11-11T13:56:35;102327.78;;;12.85;81.49
44359;BME280;30077;52.474;13.326;2022-11-11T14:01:37;102326.19;;;12.78;82.48
44359;BME280;30077;52.474;13.326;2022-11-11T14:06:50;102320.19;;;12.70;83.01
44359;BME280;30077;52.474;13.326;2022-11-11T14:12:21;102324.97;;;12.59;83.70
44359;BME280;30077;52.474;13.326;2022-11-11T14:17:29;102322.63;;;12.46;84.66
44359;BME280;30077;52.474;13.326;2022-11-11T14:22:31;102324.66;;;12.37;85.39
44359;BME280;30077;52.474;13.326;2022-11-11T14:27:33;102327.59;;;12.26;86.12
44359;BME280;30077;52.474;13.326;2022-11-11T14:32:52;102324.38;;;12.12;87.01
44359;BME280;30077;52.474;13.326;2022-11-11T14:48:57;102333.41;;;11.69;89.88
44359;BME280;30077;52.474;13.326;2022-11-11T14:53:58;102339.97;;;11.55;91.04
44359;BME280;30077;52.474;13.326;2022-11-11T14:59:05;102348.28;;;11.42;92.17
44359;BME280;30077;52.474;13.326;2022-11-11T15:04:05;102342.41;;;11.26;93.59
44359;BME280;30077;52.474;13.326;2022-11-11T15:09:30;102341.81;;;11.10;94.82
44359;BME280;30077;52.474;13.326;2022-11-11T15:14:56;102347.50;;;10.93;96.31
44359;BME280;30077;52.474;13.326;2022-11-11T15:20:19;102354.00;;;10.80;97.65
44359;BME280;30077;52.474;13.326;2022-11-11T15:25:44;102352.41;;;10.70;98.86
44359;BME280;30077;52.474;13.326;2022-11-11T15:31:00;102350.75;;;10.63;99.28
44359;BME280;30077;52.474;13.326;2022-11-11T15:36:37;102350.94;;;10.53;100.00
44359;BME280;30077;52.474;13.326;2022-11-11T15:41:41;102356.41;;;10.44;100.00
44359;BME280;30077;52.474;13.326;2022-11-11T15:46:42;102358.38;;;10.33;100.00
44359;BME280;30077;52.474;13.326;2022-11-11T15:51:44;102352.31;;;10.22;100.00
44359;BME280;30077;52.474;13.326;2022-11-11T15:56:44;102356.91;;;10.13;100.00
44359;BME280;30077;52.474;13.326;2022-11-11T16:01:45;102369.47;;;10.05;100.00
44359;BME280;30077;52.474;13.326;2022-11-11T16:06:47;102366.06;;;9.96;100.00
44359;BME280;30077;52.474;13.326;2022-11-11T16:11:49;102366.19;;;9.88;100.00
44359;BME280;30077;52.474;13.326;2022-11-11T16:16:51;102370.72;;;9.81;100.00
44359;BME280;30077;52.474;13.326;2022-11-11T16:22:01;102366.34;;;9.76;100.00
44359;BME280;30077;52.474;13.326;2022-11-11T16:27:04;102371.81;;;9.70;100.00
44359;BME280;30077;52.474;13.326;2022-11-11T16:37:23;102373.69;;;9.58;100.00
44359;BME280;30077;52.474;13.326;2022-11-11T16:42:25;102373.81;;;9.52;100.00
44359;BME280;30077;52.474;13.326;2022-11-11T16:52:40;102374.78;;;9.44;100.00
44359;BME280;30077;52.474;13.326;2022-11-11T16:57:41;102372.16;;;9.42;100.00
44359;BME280;30077;52.474;13.326;2022-11-11T17:02:44;102374.03;;;9.37;100.00
44359;BME280;30077;52.474;13.326;2022-11-11T17:07:44;102372.34;;;9.27;100.00
44359;BME280;30077;52.474;13.326;2022-11-11T17:12:45;102382.19;;;9.19;100.00
44359;BME280;30077;52.474;13.326;2022-11-11T17:17:46;102381.41;;;9.10;100.00
44359;BME280;30077;52.474;13.326;2022-11-11T17:22:50;102384.13;;;9.06;100.00
44359;BME280;30077;52.474;13.326;2022-11-11T17:27:50;102397.50;;;9.01;100.00
44359;BME280;30077;52.474;13.326;2022-11-11T17:32:51;102390.47;;;8.97;100.00
44359;BME280;30077;52.474;13.326;2022-11-11T17:37:51;102386.94;;;8.92;100.00
44359;BME280;30077;52.474;13.326;2022-11-11T17:42:51;102385.22;;;8.88;100.00
44359;BME280;30077;52.474;13.326;2022-11-11T17:47:53;102387.03;;;8.84;100.00
44359;BME280;30077;52.474;13.326;2022-11-11T17:52:54;102389.72;;;8.83;100.00
44359;BME280;30077;52.474;13.326;2022-11-11T17:57:56;102388.88;;;8.78;100.00
44359;BME280;30077;52.474;13.326;2022-11-11T18:02:57;102396.03;;;8.73;100.00
44359;BME280;30077;52.474;13.326;2022-11-11T18:07:59;102387.19;;;8.67;100.00
44359;BME280;30077;52.474;13.326;2022-11-11T18:12:59;102398.75;;;8.65;100.00
44359;BME280;30077;52.474;13.326;2022-11-11T18:17:59;102412.09;;;8.60;100.00
44359;BME280;30077;52.474;13.326;2022-11-11T18:22:59;102408.56;;;8.58;100.00
44359;BME280;30077;52.474;13.326;2022-11-11T18:28:00;102416.56;;;8.58;100.00
44359;BME280;30077;52.474;13.326;2022-11-11T18:33:00;102411.22;;;8.60;100.00
44359;BME280;30077;52.474;13.326;2022-11-11T18:38:00;102413.91;;;8.58;100.00
44359;BME280;30077;52.474;13.326;2022-11-11T18:43:00;102410.38;;;8.55;100.00
44359;BME280;30077;52.474;13.326;2022-11-11T18:48:01;102415.75;;;8.50;100.00
44359;BME280;30077;52.474;13.326;2022-11-11T18:53:01;102427.31;;;8.46;100.00
44359;BME280;30077;52.474;13.326;2022-11-11T18:58:01;102430.00;;;8.43;100.00
44359;BME280;30077;52.474;13.326;2022-11-11T19:03:02;102431.75;;;8.41;100.00
44359;BME280;30077;52.474;13.326;2022-11-11T19:08:02;102430.00;;;8.37;100.00
44359;BME280;30077;52.474;13.326;2022-11-11T19:13:04;102435.34;;;8.31;100.00
44359;BME280;30077;52.474;13.326;2022-11-11T19:18:04;102444.25;;;8.27;100.00
44359;BME280;30077;52.474;13.326;2022-11-11T19:23:04;102444.25;;;8.27;100.00
44359;BME280;30077;52.474;13.326;2022-11-11T19:28:05;102456.69;;;8.25;100.00
44359;BME280;30077;52.474;13.326;2022-11-11T19:33:07;102452.28;;;8.19;100.00
44359;BME280;30077;52.474;13.326;2022-11-11T19:38:07;102454.97;;;8.17;100.00
44359;BME280;30077;52.474;13.326;2022-11-11T19:43:08;102461.16;;;8.15;100.00
44359;BME280;30077;52.474;13.326;2022-11-11T19:48:08;102466.50;;;8.15;100.00
44359;BME280;30077;52.474;13.326;2022-11-11T19:53:12;102459.44;;;8.11;100.00
44359;BME280;30077;52.474;13.326;2022-11-11T19:58:12;102462.06;;;8.09;100.00
44359;BME280;30077;52.474;13.326;2022-11-11T20:03:12;102469.22;;;8.04;100.00
44359;BME280;30077;52.474;13.326;2022-11-11T20:08:13;102472.78;;;7.97;100.00
44359;BME280;30077;52.474;13.326;2022-11-11T20:13:13;102480.78;;;7.92;100.00
44359;BME280;30077;52.474;13.326;2022-11-11T20:18:14;102477.28;;;7.89;100.00
44359;BME280;30077;52.474;13.326;2022-11-11T20:23:14;102481.69;;;7.84;100.00
44359;BME280;30077;52.474;13.326;2022-11-11T20:28:15;102489.72;;;7.81;100.00
44359;BME280;30077;52.474;13.326;2022-11-11T20:33:15;102481.75;;;7.78;100.00
44359;BME280;30077;52.474;13.326;2022-11-11T20:38:15;102494.16;;;7.72;100.00
44359;BME280;30077;52.474;13.326;2022-11-11T20:43:15;102499.47;;;7.69;100.00
44359;BME280;30077;52.474;13.326;2022-11-11T20:48:15;102497.72;;;7.65;100.00
44359;BME280;30077;52.474;13.326;2022-11-11T20:53:16;102496.84;;;7.63;100.00
44359;BME280;30077;52.474;13.326;2022-11-11T20:58:16;102502.19;;;7.60;100.00
44359;BME280;30077;52.474;13.326;2022-11-11T21:03:16;102500.41;;;7.55;100.00
44359;BME280;30077;52.474;13.326;2022-11-11T21:08:16;102500.41;;;7.55;100.00
44359;BME280;30077;52.474;13.326;2022-11-11T21:13:17;102509.28;;;7.54;100.00
44359;BME280;30077;52.474;13.326;2022-11-11T21:18:17;102510.16;;;7.54;100.00
44359;BME280;30077;52.474;13.326;2022-11-11T21:23:17;102508.41;;;7.53;100.00
44359;BME280;30077;52.474;13.326;2022-11-11T21:28:18;102511.94;;;7.51;100.00
44359;BME280;30077;52.474;13.326;2022-11-11T21:33:18;102509.31;;;7.46;100.00
44359;BME280;30077;52.474;13.326;2022-11-11T21:38:18;102513.75;;;7.41;100.00
44359;BME280;30077;52.474;13.326;2022-11-11T21:43:18;102517.31;;;7.34;100.00
44359;BME280;30077;52.474;13.326;2022-11-11T21:48:19;102514.63;;;7.29;100.00
44359;BME280;30077;52.474;13.326;2022-11-11T21:53:19;102512.00;;;7.28;100.00
44359;BME280;30077;52.474;13.326;2022-11-11T21:58:19;102516.41;;;7.26;100.00
44359;BME280;30077;52.474;13.326;2022-11-11T22:03:19;102523.50;;;7.22;100.00
44359;BME280;30077;52.474;13.326;2022-11-11T22:08:20;102520.84;;;7.17;100.00
44359;BME280;30077;52.474;13.326;2022-11-11T22:13:20;102534.16;;;7.19;100.00
44359;BME280;30077;52.474;13.326;2022-11-11T22:18:20;102529.69;;;7.22;100.00
44359;BME280;30077;52.474;13.326;2022-11-11T22:23:20;102531.50;;;7.19;100.00
44359;BME280;30077;52.474;13.326;2022-11-11T22:28:21;102529.72;;;7.16;100.00
44359;BME280;30077;52.474;13.326;2022-11-11T22:33:21;102535.03;;;7.13;100.00
44359;BME280;30077;52.474;13.326;2022-11-11T22:38:21;102538.56;;;7.09;100.00
44359;BME280;30077;52.474;13.326;2022-11-11T22:43:21;102542.13;;;7.08;100.00
44359;BME280;30077;52.474;13.326;2022-11-11T22:48:22;102539.44;;;7.10;100.00
44359;BME280;30077;52.474;13.326;2022-11-11T22:53:22;102542.09;;;7.02;100.00
44359;BME280;30077;52.474;13.326;2022-11-11T22:58:22;102537.69;;;6.90;100.00
44359;BME280;30077;52.474;13.326;2022-11-11T23:03:23;102539.44;;;6.88;100.00
44359;BME280;30077;52.474;13.326;2022-11-11T23:08:23;102532.41;;;6.83;100.00
44359;BME280;30077;52.474;13.326;2022-11-11T23:13:23;102540.34;;;6.80;100.00
44359;BME280;30077;52.474;13.326;2022-11-11T23:18:24;102540.34;;;6.77;100.00
44359;BME280;30077;52.474;13.326;2022-11-11T23:23:25;102530.59;;;6.77;100.00
44359;BME280;30077;52.474;13.326;2022-11-11T23:28:25;102529.72;;;6.73;100.00
44359;BME280;30077;52.474;13.326;2022-11-11T23:33:29;102539.44;;;6.70;100.00
44359;BME280;30077;52.474;13.326;2022-11-11T23:38:29;102534.16;;;6.65;100.00
44359;BME280;30077;52.474;13.326;2022-11-11T23:43:30;102535.91;;;6.63;100.00
44359;BME280;30077;52.474;13.326;2022-11-11T23:48:31;102535.00;;;6.64;100.00
44359;BME280;30077;52.474;13.326;2022-11-11T23:53:32;102528.81;;;6.64;100.00
44359;BME280;30077;52.474;13.326;2022-11-11T23:58:33;102526.16;;;6.59;100.00
